createdAt,value
2023-01-07T00:00:29.203Z,1.20
2023-01-07T00:01:29.029Z,1.20
2023-01-07T00:02:29.080Z,1.20
2023-01-07T00:03:29.120Z,1.10
2023-01-07T00:04:28.995Z,1.40
2023-01-07T00:05:28.988Z,1.00
2023-01-07T00:06:29.002Z,1.10
2023-01-07T00:07:28.957Z,1.20
2023-01-07T00:08:28.973Z,1.20
2023-01-07T00:09:28.988Z,1.10
2023-01-07T00:10:28.923Z,1.30
2023-01-07T00:11:28.921Z,1.40
2023-01-07T00:12:28.903Z,1.20
2023-01-07T00:13:28.905Z,1.40
2023-01-07T00:14:28.890Z,1.40
2023-01-07T00:15:28.984Z,1.20
2023-01-07T00:16:28.883Z,1.40
2023-01-07T00:17:28.846Z,1.40
2023-01-07T00:18:28.835Z,1.30
2023-01-07T00:19:28.847Z,1.40
2023-01-07T00:20:28.827Z,1.50
2023-01-07T00:21:28.858Z,1.40
2023-01-07T00:22:28.786Z,1.30
2023-01-07T00:23:28.786Z,1.30
2023-01-07T00:24:28.949Z,1.50
2023-01-07T00:25:28.761Z,1.60
2023-01-07T00:26:28.771Z,1.30
2023-01-07T00:27:28.759Z,1.20
2023-01-07T00:28:28.723Z,1.50
2023-01-07T00:29:28.739Z,1.30
2023-01-07T00:30:28.730Z,1.20
2023-01-07T00:31:28.817Z,1.50
2023-01-07T00:32:29.629Z,1.20
2023-01-07T00:33:28.680Z,1.10
2023-01-07T00:34:28.653Z,1.20
2023-01-07T00:35:28.778Z,1.40
2023-01-07T00:36:28.664Z,1.30
2023-01-07T00:37:28.642Z,1.30
2023-01-07T00:38:28.606Z,1.30
2023-01-07T00:39:29.563Z,1.10
2023-01-07T00:40:28.582Z,1.30
2023-01-07T00:41:28.613Z,1.00
2023-01-07T00:42:28.596Z,1.20
2023-01-07T00:43:28.577Z,1.20
2023-01-07T00:44:28.549Z,1.50
2023-01-07T00:45:28.533Z,1.30
2023-01-07T00:46:28.570Z,1.00
2023-01-07T00:47:28.553Z,1.20
2023-01-07T00:48:28.504Z,1.20
2023-01-07T00:49:28.528Z,1.30
2023-01-07T00:50:28.474Z,1.00
2023-01-07T00:51:28.465Z,1.40
2023-01-07T00:52:28.459Z,1.10
2023-01-07T00:53:28.475Z,1.20
2023-01-07T00:54:28.440Z,1.20
2023-01-07T00:55:28.435Z,1.10
2023-01-07T00:56:28.433Z,1.00
2023-01-07T00:57:28.387Z,1.20
2023-01-07T00:58:28.426Z,1.30
2023-01-07T00:59:28.416Z,1.40
2023-01-07T01:00:28.394Z,1.30
2023-01-07T01:01:28.451Z,1.40
2023-01-07T01:02:28.459Z,1.20
2023-01-07T01:03:28.335Z,1.20
2023-01-07T01:04:28.321Z,1.10
2023-01-07T01:05:28.314Z,1.50
2023-01-07T01:06:28.341Z,1.10
2023-01-07T01:07:28.279Z,1.20
2023-01-07T01:08:28.289Z,1.30
2023-01-07T01:09:28.261Z,1.60
2023-01-07T01:10:28.269Z,1.00
2023-01-07T01:11:28.313Z,1.40
2023-01-07T01:12:28.225Z,1.10
2023-01-07T01:13:28.247Z,1.10
2023-01-07T01:14:28.223Z,1.10
2023-01-07T01:15:28.224Z,0.80
2023-01-07T01:16:28.248Z,1.10
2023-01-07T01:17:28.268Z,1.10
2023-01-07T01:18:28.196Z,1.20
2023-01-07T01:19:28.160Z,1.20
2023-01-07T01:20:28.150Z,1.00
2023-01-07T01:21:28.124Z,1.10
2023-01-07T01:22:28.103Z,1.30
2023-01-07T01:23:28.132Z,1.20
2023-01-07T01:24:28.128Z,1.00
2023-01-07T01:25:28.090Z,1.00
2023-01-07T01:26:28.069Z,1.00
2023-01-07T01:27:28.057Z,1.30
2023-01-07T01:28:28.074Z,0.90
2023-01-07T01:29:28.077Z,1.30
2023-01-07T01:30:28.044Z,1.20
2023-01-07T01:31:28.048Z,1.20
2023-01-07T01:32:28.003Z,1.40
2023-01-07T01:33:27.987Z,1.20
2023-01-07T01:34:28.003Z,1.10
2023-01-07T01:35:27.970Z,1.60
2023-01-07T01:36:27.956Z,1.40
2023-01-07T01:37:27.971Z,1.20
2023-01-07T01:38:27.937Z,1.40
2023-01-07T01:39:27.951Z,1.30
2023-01-07T01:40:27.926Z,1.40
2023-01-07T01:41:27.917Z,1.20
2023-01-07T01:42:27.921Z,1.10
2023-01-07T01:43:27.896Z,1.40
2023-01-07T01:44:27.880Z,1.20
2023-01-07T01:45:27.857Z,1.30
2023-01-07T01:46:27.864Z,1.30
2023-01-07T01:47:27.838Z,1.10
2023-01-07T01:48:27.817Z,1.50
2023-01-07T01:49:27.870Z,1.10
2023-01-07T01:50:27.801Z,1.20
2023-01-07T01:51:27.811Z,1.40
2023-01-07T01:52:27.770Z,1.00
2023-01-07T01:53:27.825Z,1.30
2023-01-07T01:54:27.762Z,1.60
2023-01-07T01:55:27.759Z,1.60
2023-01-07T01:56:27.733Z,1.30
2023-01-07T01:57:27.712Z,1.30
2023-01-07T01:58:27.766Z,1.40
2023-01-07T01:59:27.723Z,1.70
2023-01-07T02:00:27.705Z,1.40
2023-01-07T02:01:27.845Z,1.40
2023-01-07T02:02:27.711Z,1.40
2023-01-07T02:03:27.712Z,1.30
2023-01-07T02:04:27.673Z,1.10
2023-01-07T02:05:27.634Z,1.10
2023-01-07T02:06:27.620Z,1.10
2023-01-07T02:07:27.616Z,1.00
2023-01-07T02:08:27.636Z,1.10
2023-01-07T02:09:27.638Z,1.30
2023-01-07T02:10:27.585Z,1.10
2023-01-07T02:11:27.568Z,1.40
2023-01-07T02:12:27.597Z,1.20
2023-01-07T02:13:27.549Z,1.20
2023-01-07T02:14:27.535Z,0.90
2023-01-07T02:15:27.530Z,1.00
2023-01-07T02:16:27.672Z,1.20
2023-01-07T02:17:27.512Z,1.10
2023-01-07T02:18:27.499Z,1.30
2023-01-07T02:19:27.480Z,1.00
2023-01-07T02:20:27.451Z,1.20
2023-01-07T02:21:27.449Z,1.20
2023-01-07T02:22:27.436Z,1.30
2023-01-07T02:23:27.473Z,1.20
2023-01-07T02:24:27.407Z,1.40
2023-01-07T02:25:27.417Z,1.20
2023-01-07T02:26:27.454Z,1.10
2023-01-07T02:27:27.394Z,1.10
2023-01-07T02:28:27.393Z,1.30
2023-01-07T02:29:27.373Z,1.00
2023-01-07T02:30:27.342Z,1.30
2023-01-07T02:31:27.390Z,1.20
2023-01-07T02:32:27.334Z,1.10
2023-01-07T02:33:27.312Z,0.90
2023-01-07T02:34:27.331Z,1.20
2023-01-07T02:35:27.323Z,1.00
2023-01-07T02:36:27.309Z,1.00
2023-01-07T02:37:27.272Z,1.10
2023-01-07T02:38:27.241Z,0.80
2023-01-07T02:39:27.271Z,1.00
2023-01-07T02:40:27.278Z,0.90
2023-01-07T02:41:27.235Z,1.00
2023-01-07T02:42:27.212Z,1.00
2023-01-07T02:43:27.203Z,1.00
2023-01-07T02:44:27.254Z,1.00
2023-01-07T02:45:27.271Z,0.90
2023-01-07T02:46:27.169Z,0.80
2023-01-07T02:47:27.154Z,1.00
2023-01-07T02:48:27.166Z,0.90
2023-01-07T02:49:27.156Z,0.90
2023-01-07T02:50:27.154Z,1.00
2023-01-07T02:51:27.113Z,0.80
2023-01-07T02:52:27.120Z,1.00
2023-01-07T02:53:27.095Z,0.90
2023-01-07T02:54:27.113Z,0.90
2023-01-07T02:55:27.089Z,0.80
2023-01-07T02:56:27.098Z,1.00
2023-01-07T02:57:27.045Z,0.80
2023-01-07T02:58:27.069Z,0.80
2023-01-07T02:59:27.032Z,0.90
2023-01-07T03:00:27.027Z,0.80
2023-01-07T03:01:27.126Z,0.90
2023-01-07T03:02:27.038Z,0.90
2023-01-07T03:03:26.982Z,0.90
2023-01-07T03:04:27.003Z,0.90
2023-01-07T03:05:26.958Z,0.80
2023-01-07T03:06:26.952Z,0.80
2023-01-07T03:07:26.979Z,1.20
2023-01-07T03:08:26.936Z,0.90
2023-01-07T03:09:26.949Z,1.00
2023-01-07T03:10:26.919Z,1.00
2023-01-07T03:11:26.907Z,0.90
2023-01-07T03:12:26.901Z,0.80
2023-01-07T03:13:26.865Z,0.90
2023-01-07T03:14:26.854Z,1.10
2023-01-07T03:15:28.925Z,0.90
2023-01-07T03:16:26.870Z,1.10
2023-01-07T03:17:26.815Z,1.10
2023-01-07T03:18:26.818Z,1.30
2023-01-07T03:19:26.791Z,0.90
2023-01-07T03:20:26.784Z,0.80
2023-01-07T03:21:26.805Z,0.90
2023-01-07T03:22:26.781Z,0.90
2023-01-07T03:23:26.767Z,1.00
2023-01-07T03:24:26.767Z,0.90
2023-01-07T03:25:26.748Z,0.80
2023-01-07T03:26:26.744Z,0.80
2023-01-07T03:27:26.791Z,1.00
2023-01-07T03:28:26.709Z,0.90
2023-01-07T03:29:26.687Z,1.00
2023-01-07T03:30:26.687Z,1.00
2023-01-07T03:31:26.784Z,0.80
2023-01-07T03:32:26.670Z,0.90
2023-01-07T03:33:27.592Z,1.00
2023-01-07T03:34:26.629Z,0.70
2023-01-07T03:35:26.613Z,0.90
2023-01-07T03:36:26.631Z,1.00
2023-01-07T03:37:26.620Z,0.80
2023-01-07T03:38:26.587Z,0.80
2023-01-07T03:39:26.632Z,0.90
2023-01-07T03:40:26.579Z,0.90
2023-01-07T03:41:26.545Z,0.90
2023-01-07T03:42:26.535Z,0.90
2023-01-07T03:43:26.521Z,1.00
2023-01-07T03:44:26.552Z,0.70
2023-01-07T03:45:26.592Z,1.00
2023-01-07T03:46:26.512Z,0.70
2023-01-07T03:47:26.474Z,1.00
2023-01-07T03:48:26.524Z,0.90
2023-01-07T03:49:26.469Z,0.90
2023-01-07T03:51:36.799Z,0.80
2023-01-07T03:52:36.753Z,0.90
2023-01-07T03:53:36.773Z,0.80
2023-01-07T03:54:36.728Z,0.80
2023-01-07T03:55:36.730Z,1.00
2023-01-07T03:56:36.716Z,0.90
2023-01-07T03:57:36.674Z,0.90
2023-01-07T03:58:36.707Z,1.00
2023-01-07T03:59:36.656Z,0.90
2023-01-07T04:00:36.666Z,1.00
2023-01-07T04:01:36.861Z,1.10
2023-01-07T04:02:36.650Z,1.00
2023-01-07T04:03:36.627Z,1.00
2023-01-07T04:04:36.744Z,0.80
2023-01-07T04:05:36.613Z,1.10
2023-01-07T04:06:36.626Z,1.00
2023-01-07T04:07:36.567Z,1.00
2023-01-07T04:08:36.579Z,1.10
2023-01-07T04:09:36.554Z,1.20
2023-01-07T04:10:36.570Z,1.10
2023-01-07T04:11:36.523Z,1.00
2023-01-07T04:12:36.541Z,1.00
2023-01-07T04:13:36.521Z,1.10
2023-01-07T04:14:36.545Z,0.90
2023-01-07T04:15:36.505Z,1.20
2023-01-07T04:16:36.567Z,1.20
2023-01-07T04:17:36.474Z,1.10
2023-01-07T04:18:36.471Z,1.20
2023-01-07T04:19:36.451Z,1.00
2023-01-07T04:20:36.461Z,0.90
2023-01-07T04:21:36.433Z,1.00
2023-01-07T04:22:36.426Z,0.90
2023-01-07T04:23:36.397Z,0.90
2023-01-07T04:24:36.470Z,1.00
2023-01-07T04:25:36.397Z,1.00
2023-01-07T04:26:36.395Z,0.90
2023-01-07T04:27:36.368Z,1.10
2023-01-07T04:28:36.362Z,1.00
2023-01-07T04:29:36.343Z,1.00
2023-01-07T04:30:36.413Z,1.00
2023-01-07T04:31:36.304Z,1.00
2023-01-07T04:32:36.323Z,1.00
2023-01-07T04:33:36.293Z,1.20
2023-01-07T04:34:36.314Z,1.10
2023-01-07T04:35:36.272Z,1.00
2023-01-07T04:36:36.331Z,1.30
2023-01-07T04:37:36.247Z,1.20
2023-01-07T04:38:36.240Z,1.00
2023-01-07T04:39:36.217Z,1.10
2023-01-07T04:40:36.218Z,1.10
2023-01-07T04:41:36.199Z,1.10
2023-01-07T04:42:36.237Z,1.00
2023-01-07T04:43:36.266Z,1.00
2023-01-07T04:44:36.192Z,1.10
2023-01-07T04:45:36.206Z,0.90
2023-01-07T04:46:36.216Z,1.20
2023-01-07T04:47:36.130Z,1.20
2023-01-07T04:48:36.153Z,1.50
2023-01-07T04:49:36.119Z,1.10
2023-01-07T04:50:36.118Z,1.10
2023-01-07T04:51:36.126Z,1.30
2023-01-07T04:52:36.092Z,1.10
2023-01-07T04:53:36.059Z,1.40
2023-01-07T04:54:36.059Z,1.20
2023-01-07T04:55:36.045Z,1.20
2023-01-07T04:56:36.067Z,1.20
2023-01-07T04:57:36.032Z,1.30
2023-01-07T04:58:36.033Z,1.00
2023-01-07T04:59:35.992Z,1.00
2023-01-07T05:00:36.004Z,1.20
2023-01-07T05:01:36.180Z,1.00
2023-01-07T05:02:36.003Z,1.20
2023-01-07T05:03:35.991Z,1.10
2023-01-07T05:04:35.995Z,1.10
2023-01-07T05:05:35.954Z,1.10
2023-01-07T05:06:35.964Z,1.20
2023-01-07T05:07:35.969Z,1.20
2023-01-07T05:08:35.933Z,1.30
2023-01-07T05:09:35.886Z,1.40
2023-01-07T05:10:35.911Z,1.20
2023-01-07T05:11:35.878Z,1.40
2023-01-07T05:12:35.920Z,1.20
2023-01-07T05:13:35.852Z,1.10
2023-01-07T05:14:35.848Z,1.00
2023-01-07T05:15:35.901Z,1.40
2023-01-07T05:16:35.867Z,1.00
2023-01-07T05:17:35.800Z,1.00
2023-01-07T05:18:35.815Z,1.20
2023-01-07T05:19:35.796Z,1.10
2023-01-07T05:20:35.825Z,1.30
2023-01-07T05:21:35.762Z,1.00
2023-01-07T05:22:35.748Z,1.30
2023-01-07T05:23:35.739Z,1.20
2023-01-07T05:24:35.726Z,1.10
2023-01-07T05:25:35.767Z,1.30
2023-01-07T05:26:35.711Z,1.00
2023-01-07T05:27:35.726Z,1.20
2023-01-07T05:28:35.679Z,1.20
2023-01-07T05:29:35.669Z,1.20
2023-01-07T05:30:35.716Z,1.20
2023-01-07T05:31:35.639Z,1.30
2023-01-07T05:32:35.665Z,1.20
2023-01-07T05:33:35.611Z,1.10
2023-01-07T05:34:35.624Z,1.20
2023-01-07T05:35:35.618Z,1.30
2023-01-07T05:36:35.631Z,1.30
2023-01-07T05:37:35.628Z,1.10
2023-01-07T05:38:35.563Z,1.10
2023-01-07T05:39:35.541Z,1.20
2023-01-07T05:40:35.545Z,1.10
2023-01-07T05:41:35.538Z,1.30
2023-01-07T05:42:35.533Z,1.00
2023-01-07T05:43:35.564Z,1.30
2023-01-07T05:44:35.530Z,1.20
2023-01-07T05:45:35.516Z,1.10
2023-01-07T05:46:35.503Z,1.20
2023-01-07T05:47:35.471Z,1.40
2023-01-07T05:48:35.485Z,1.20
2023-01-07T05:49:35.465Z,1.10
2023-01-07T05:50:35.475Z,1.50
2023-01-07T05:51:35.449Z,1.40
2023-01-07T05:52:35.417Z,1.20
2023-01-07T05:53:35.396Z,1.30
2023-01-07T05:54:35.453Z,1.50
2023-01-07T05:55:35.434Z,1.40
2023-01-07T05:56:35.406Z,1.50
2023-01-07T05:57:35.361Z,1.50
2023-01-07T05:58:35.367Z,1.40
2023-01-07T05:59:36.285Z,1.30
2023-01-07T06:00:35.347Z,1.50
2023-01-07T06:01:35.308Z,1.50
2023-01-07T06:02:35.353Z,1.40
2023-01-07T06:03:36.356Z,1.40
2023-01-07T06:04:36.254Z,1.30
2023-01-07T06:05:35.300Z,1.40
2023-01-07T06:06:35.265Z,1.60
2023-01-07T06:07:35.266Z,1.50
2023-01-07T06:08:35.231Z,1.20
2023-01-07T06:09:35.230Z,1.60
2023-01-07T06:10:35.235Z,1.40
2023-01-07T06:11:35.203Z,1.40
2023-01-07T06:12:35.194Z,1.30
2023-01-07T06:13:35.199Z,1.70
2023-01-07T06:14:35.233Z,1.60
2023-01-07T06:15:35.234Z,1.80
2023-01-07T06:16:35.196Z,1.70
2023-01-07T06:17:35.137Z,1.40
2023-01-07T06:18:35.136Z,1.50
2023-01-07T06:19:35.117Z,1.70
2023-01-07T06:20:35.175Z,1.40
2023-01-07T06:21:35.121Z,1.40
2023-01-07T06:22:35.090Z,1.40
2023-01-07T06:23:35.099Z,1.50
2023-01-07T06:24:35.068Z,1.60
2023-01-07T06:25:35.060Z,1.50
2023-01-07T06:26:35.067Z,1.50
2023-01-07T06:27:35.047Z,1.50
2023-01-07T06:28:35.038Z,1.50
2023-01-07T06:29:35.003Z,1.80
2023-01-07T06:30:35.000Z,1.30
2023-01-07T06:31:35.102Z,1.70
2023-01-07T06:32:34.976Z,1.40
2023-01-07T06:33:34.979Z,1.70
2023-01-07T06:34:34.957Z,1.40
2023-01-07T06:35:34.935Z,1.40
2023-01-07T06:36:34.934Z,1.60
2023-01-07T06:37:34.948Z,1.50
2023-01-07T06:38:34.917Z,1.70
2023-01-07T06:39:34.907Z,1.50
2023-01-07T06:40:34.909Z,1.50
2023-01-07T06:41:34.882Z,1.90
2023-01-07T06:42:34.856Z,1.50
2023-01-07T06:43:34.877Z,1.50
2023-01-07T06:44:34.849Z,1.60
2023-01-07T06:45:34.847Z,1.60
2023-01-07T06:46:34.891Z,1.70
2023-01-07T06:47:34.831Z,1.70
2023-01-07T06:48:34.816Z,1.60
2023-01-07T06:49:34.805Z,1.60
2023-01-07T06:50:34.801Z,1.40
2023-01-07T06:51:34.763Z,1.50
2023-01-07T06:52:34.780Z,1.30
2023-01-07T06:53:34.763Z,1.50
2023-01-07T06:54:34.748Z,1.30
2023-01-07T06:55:34.733Z,1.40
2023-01-07T06:56:34.720Z,1.40
2023-01-07T06:57:34.717Z,1.50
2023-01-07T06:58:34.707Z,1.60
2023-01-07T06:59:34.665Z,1.50
2023-01-07T07:00:34.714Z,1.60
2023-01-07T07:01:34.820Z,1.50
2023-01-07T07:02:34.810Z,1.50
2023-01-07T07:03:34.651Z,1.20
2023-01-07T07:04:34.652Z,1.30
2023-01-07T07:05:34.602Z,1.40
2023-01-07T07:06:34.640Z,1.10
2023-01-07T07:07:34.609Z,1.40
2023-01-07T07:08:34.579Z,1.50
2023-01-07T07:09:34.577Z,1.20
2023-01-07T07:10:34.561Z,1.40
2023-01-07T07:11:34.536Z,1.30
2023-01-07T07:12:34.561Z,1.40
2023-01-07T07:13:34.530Z,1.10
2023-01-07T07:14:34.517Z,1.50
2023-01-07T07:15:34.486Z,1.30
2023-01-07T07:16:34.498Z,1.30
2023-01-07T07:17:34.487Z,1.50
2023-01-07T07:18:34.456Z,1.40
2023-01-07T07:19:34.455Z,1.20
2023-01-07T07:20:34.456Z,1.50
2023-01-07T07:21:34.432Z,1.40
2023-01-07T07:22:34.416Z,1.50
2023-01-07T07:23:34.435Z,1.50
2023-01-07T07:24:35.358Z,1.40
2023-01-07T07:25:34.378Z,1.50
2023-01-07T07:26:34.378Z,1.50
2023-01-07T07:27:34.380Z,1.60
2023-01-07T07:28:34.523Z,1.60
2023-01-07T07:29:34.423Z,1.40
2023-01-07T07:30:46.630Z,1.70
2023-01-07T07:31:35.373Z,1.40
2023-01-07T07:32:34.302Z,1.60
2023-01-07T07:33:34.298Z,1.30
2023-01-07T07:34:35.923Z,2.00
2023-01-07T07:35:34.331Z,1.50
2023-01-07T07:36:34.269Z,1.40
2023-01-07T07:37:34.253Z,1.70
2023-01-07T07:38:34.243Z,1.60
2023-01-07T07:39:34.234Z,1.40
2023-01-07T07:40:35.196Z,1.60
2023-01-07T07:41:34.212Z,1.50
2023-01-07T07:43:11.592Z,1.90
2023-01-07T07:43:35.181Z,1.60
2023-01-07T07:44:34.176Z,1.70
2023-01-07T07:45:34.203Z,1.80
2023-01-07T07:46:34.249Z,1.60
2023-01-07T07:47:34.156Z,1.70
2023-01-07T07:48:34.125Z,1.50
2023-01-07T07:49:34.137Z,1.60
2023-01-07T07:50:34.111Z,1.70
2023-01-07T07:51:34.149Z,1.70
2023-01-07T07:52:34.121Z,1.80
2023-01-07T07:53:34.081Z,1.70
2023-01-07T07:54:34.065Z,1.80
2023-01-07T07:55:34.066Z,1.70
2023-01-07T07:56:34.038Z,1.80
2023-01-07T07:57:34.066Z,1.60
2023-01-07T07:58:34.045Z,1.60
2023-01-07T07:59:34.025Z,1.40
2023-01-07T08:00:34.023Z,1.60
2023-01-07T08:01:37.070Z,1.40
2023-01-07T08:02:34.022Z,1.60
2023-01-07T08:03:33.990Z,1.30
2023-01-07T08:04:33.948Z,1.80
2023-01-07T08:05:33.943Z,1.50
2023-01-07T08:06:33.916Z,1.50
2023-01-07T08:07:35.259Z,1.50
2023-01-07T08:08:33.972Z,1.50
2023-01-07T08:09:33.911Z,1.40
2023-01-07T08:10:33.901Z,1.20
2023-01-07T08:11:33.901Z,1.40
2023-01-07T08:12:33.860Z,1.40
2023-01-07T08:13:33.850Z,1.70
2023-01-07T08:14:33.875Z,1.60
2023-01-07T08:15:33.822Z,1.50
2023-01-07T08:16:33.864Z,1.50
2023-01-07T08:17:33.819Z,2.80
2023-01-07T08:18:33.813Z,15.70
2023-01-07T08:19:33.789Z,17.50
2023-01-07T08:20:33.793Z,23.10
2023-01-07T08:21:33.775Z,8.00
2023-01-07T08:22:33.781Z,2.60
2023-01-07T08:23:33.748Z,1.60
2023-01-07T08:24:33.814Z,1.60
2023-01-07T08:25:35.199Z,1.60
2023-01-07T08:26:33.733Z,1.60
2023-01-07T08:27:33.696Z,1.60
2023-01-07T08:28:33.707Z,1.80
2023-01-07T08:29:33.715Z,1.60
2023-01-07T08:30:33.667Z,1.80
2023-01-07T08:31:33.685Z,1.50
2023-01-07T08:32:33.643Z,1.60
2023-01-07T08:33:33.653Z,1.60
2023-01-07T08:34:33.614Z,1.40
2023-01-07T08:35:33.641Z,1.90
2023-01-07T08:36:33.603Z,1.60
2023-01-07T08:37:33.604Z,1.60
2023-01-07T08:38:33.585Z,1.80
2023-01-07T08:39:33.562Z,1.30
2023-01-07T08:40:33.540Z,1.30
2023-01-07T08:41:33.685Z,1.10
2023-01-07T08:42:33.525Z,1.50
2023-01-07T08:43:33.544Z,1.30
2023-01-07T08:44:33.500Z,1.30
2023-01-07T08:45:33.522Z,1.30
2023-01-07T08:46:33.868Z,1.30
2023-01-07T08:47:33.487Z,1.40
2023-01-07T08:48:33.446Z,1.00
2023-01-07T08:49:33.442Z,1.30
2023-01-07T08:50:33.471Z,1.60
2023-01-07T08:51:33.460Z,1.40
2023-01-07T08:52:33.418Z,2.20
2023-01-07T08:53:33.409Z,1.60
2023-01-07T08:54:33.583Z,1.40
2023-01-07T08:55:33.396Z,1.80
2023-01-07T08:56:33.408Z,1.30
2023-01-07T08:57:33.362Z,1.50
2023-01-07T08:58:33.343Z,1.30
2023-01-07T08:59:33.350Z,1.50
2023-01-07T09:00:33.348Z,1.50
2023-01-07T09:01:33.515Z,1.20
2023-01-07T09:02:33.370Z,1.30
2023-01-07T09:03:33.307Z,1.20
2023-01-07T09:04:33.274Z,1.40
2023-01-07T09:05:35.203Z,1.40
2023-01-07T09:06:33.684Z,2.00
2023-01-07T09:07:33.280Z,1.50
2023-01-07T09:08:33.237Z,1.20
2023-01-07T09:09:33.254Z,1.50
2023-01-07T09:10:33.238Z,1.30
2023-01-07T09:11:33.229Z,1.30
2023-01-07T09:12:33.201Z,1.50
2023-01-07T09:13:33.182Z,1.20
2023-01-07T09:14:33.432Z,1.10
2023-01-07T09:15:33.189Z,1.50
2023-01-07T09:16:33.166Z,1.00
2023-01-07T09:17:33.134Z,1.00
2023-01-07T09:18:33.152Z,0.90
2023-01-07T09:19:33.158Z,1.10
2023-01-07T09:20:34.099Z,1.20
2023-01-07T09:21:33.104Z,1.10
2023-01-07T09:22:33.377Z,1.10
2023-01-07T09:23:33.091Z,1.00
2023-01-07T09:24:33.057Z,1.40
2023-01-07T09:25:33.076Z,1.40
2023-01-07T09:26:33.047Z,1.50
2023-01-07T09:27:33.519Z,1.00
2023-01-07T09:28:33.012Z,1.00
2023-01-07T09:29:33.117Z,1.20
2023-01-07T09:30:33.026Z,1.10
2023-01-07T09:31:33.015Z,1.10
2023-01-07T09:32:32.967Z,1.10
2023-01-07T09:33:32.978Z,1.20
2023-01-07T09:34:32.957Z,1.00
2023-01-07T09:35:32.958Z,1.20
2023-01-07T09:36:32.920Z,1.00
2023-01-07T09:37:32.948Z,1.20
2023-01-07T09:38:32.919Z,1.50
2023-01-07T09:39:32.956Z,1.10
2023-01-07T09:40:32.883Z,1.10
2023-01-07T09:41:32.907Z,1.00
2023-01-07T09:42:33.998Z,1.10
2023-01-07T09:43:59.339Z,1.40
2023-01-07T09:44:33.834Z,1.00
2023-01-07T09:45:32.937Z,1.10
2023-01-07T09:46:32.834Z,1.20
2023-01-07T09:47:32.856Z,1.20
2023-01-07T09:48:32.808Z,1.00
2023-01-07T09:49:32.793Z,1.20
2023-01-07T09:50:32.765Z,1.10
2023-01-07T09:51:32.793Z,1.10
2023-01-07T09:52:33.713Z,1.00
2023-01-07T09:53:32.745Z,1.20
2023-01-07T09:54:32.738Z,1.00
2023-01-07T09:55:32.721Z,1.00
2023-01-07T09:56:32.710Z,1.10
2023-01-07T09:57:32.698Z,1.40
2023-01-07T09:58:32.677Z,1.10
2023-01-07T09:59:32.677Z,0.90
2023-01-07T10:00:32.667Z,1.30
2023-01-07T10:01:32.759Z,1.00
2023-01-07T10:02:32.680Z,1.30
2023-01-07T10:03:32.701Z,1.20
2023-01-07T10:04:32.615Z,1.20
2023-01-07T10:05:32.637Z,1.20
2023-01-07T10:06:43.169Z,1.20
2023-01-07T10:07:33.580Z,0.90
2023-01-07T10:08:32.658Z,1.10
2023-01-07T10:09:32.564Z,1.10
2023-01-07T10:10:32.548Z,1.00
2023-01-07T10:11:33.505Z,0.90
2023-01-07T10:12:32.560Z,0.90
2023-01-07T10:13:32.553Z,1.20
2023-01-07T10:14:32.533Z,0.90
2023-01-07T10:15:32.493Z,1.00
2023-01-07T10:16:32.494Z,1.00
2023-01-07T10:17:32.478Z,1.10
2023-01-07T10:18:32.469Z,1.10
2023-01-07T10:19:32.470Z,1.00
2023-01-07T10:20:32.439Z,1.10
2023-01-07T10:21:32.428Z,1.00
2023-01-07T10:22:32.431Z,1.00
2023-01-07T10:23:32.437Z,1.00
2023-01-07T10:24:32.406Z,1.20
2023-01-07T10:25:32.433Z,1.10
2023-01-07T10:26:32.386Z,1.10
2023-01-07T10:27:32.363Z,0.90
2023-01-07T10:28:32.361Z,1.30
2023-01-07T10:29:32.333Z,1.00
2023-01-07T10:30:32.321Z,1.10
2023-01-07T10:31:32.391Z,1.10
2023-01-07T10:32:32.297Z,1.30
2023-01-07T10:33:32.296Z,1.10
2023-01-07T10:34:32.291Z,1.30
2023-01-07T10:35:32.320Z,1.00
2023-01-07T10:36:32.277Z,1.10
2023-01-07T10:37:32.320Z,1.10
2023-01-07T10:38:32.255Z,0.90
2023-01-07T10:39:32.215Z,1.20
2023-01-07T10:40:32.244Z,1.30
2023-01-07T10:41:32.205Z,1.20
2023-01-07T10:42:32.204Z,1.10
2023-01-07T10:43:32.209Z,1.50
2023-01-07T10:44:32.163Z,1.10
2023-01-07T10:45:32.228Z,1.20
2023-01-07T10:46:32.148Z,1.20
2023-01-07T10:47:32.138Z,1.40
2023-01-07T10:48:32.177Z,1.00
2023-01-07T10:49:32.118Z,1.10
2023-01-07T10:50:32.127Z,1.20
2023-01-07T10:51:32.100Z,1.10
2023-01-07T10:52:32.083Z,1.10
2023-01-07T10:53:32.083Z,1.20
2023-01-07T10:54:32.087Z,1.30
2023-01-07T10:55:32.060Z,1.20
2023-01-07T10:56:32.060Z,1.10
2023-01-07T10:57:34.489Z,1.40
2023-01-07T10:58:32.008Z,1.50
2023-01-07T10:59:32.011Z,1.20
2023-01-07T11:00:32.952Z,1.60
2023-01-07T11:01:32.039Z,1.40
2023-01-07T11:02:32.131Z,1.50
2023-01-07T11:03:31.962Z,1.30
2023-01-07T11:04:31.986Z,1.40
2023-01-07T11:05:31.942Z,1.30
2023-01-07T11:06:31.928Z,1.50
2023-01-07T11:07:31.906Z,1.20
2023-01-07T11:08:31.894Z,1.20
2023-01-07T11:09:31.925Z,1.50
2023-01-07T11:10:31.905Z,1.50
2023-01-07T11:11:31.863Z,1.70
2023-01-07T11:12:31.844Z,1.60
2023-01-07T11:13:31.847Z,1.50
2023-01-07T11:14:31.984Z,1.40
2023-01-07T11:15:31.842Z,1.80
2023-01-07T11:16:32.889Z,1.70
2023-01-07T11:17:31.812Z,1.90
2023-01-07T11:18:31.801Z,1.70
2023-01-07T11:19:31.822Z,1.70
2023-01-07T11:20:31.758Z,1.50
2023-01-07T11:21:43.270Z,1.60
2023-01-07T11:22:33.722Z,1.60
2023-01-07T11:23:31.899Z,1.70
2023-01-07T11:24:31.736Z,1.70
2023-01-07T11:25:31.718Z,1.60
2023-01-07T11:26:32.701Z,1.80
2023-01-07T11:27:31.694Z,2.00
2023-01-07T11:28:31.943Z,2.00
2023-01-07T11:29:31.701Z,1.70
2023-01-07T11:30:31.666Z,2.00
2023-01-07T11:31:31.716Z,1.90
2023-01-07T11:32:31.629Z,2.00
2023-01-07T11:34:03.009Z,1.80
2023-01-07T11:34:32.650Z,2.20
2023-01-07T11:35:31.622Z,1.90
2023-01-07T11:36:31.583Z,2.00
2023-01-07T11:37:31.589Z,1.80
2023-01-07T11:38:31.561Z,2.00
2023-01-07T11:39:31.583Z,2.10
2023-01-07T11:40:31.540Z,2.00
2023-01-07T11:41:31.527Z,2.40
2023-01-07T11:42:31.513Z,2.30
2023-01-07T11:43:31.540Z,2.40
2023-01-07T11:44:31.513Z,2.00
2023-01-07T11:45:31.531Z,2.20
2023-01-07T11:46:31.609Z,2.00
2023-01-07T11:47:31.463Z,2.00
2023-01-07T11:48:31.597Z,2.20
2023-01-07T11:49:31.456Z,2.10
2023-01-07T11:50:31.438Z,2.00
2023-01-07T11:51:31.406Z,1.80
2023-01-07T11:52:31.409Z,1.90
2023-01-07T11:53:31.455Z,1.90
2023-01-07T11:54:31.422Z,1.80
2023-01-07T11:55:31.392Z,1.80
2023-01-07T11:56:31.357Z,1.80
2023-01-07T11:57:31.361Z,2.00
2023-01-07T11:58:31.505Z,1.60
2023-01-07T11:59:31.354Z,1.90
2023-01-07T12:00:31.360Z,2.00
2023-01-07T12:01:31.328Z,1.80
2023-01-07T12:02:32.309Z,1.70
2023-01-07T12:03:31.309Z,2.10
2023-01-07T12:04:31.269Z,2.00
2023-01-07T12:05:31.263Z,1.70
2023-01-07T12:06:31.286Z,2.00
2023-01-07T12:07:32.208Z,1.80
2023-01-07T12:08:31.238Z,2.10
2023-01-07T12:09:31.210Z,2.20
2023-01-07T12:10:31.206Z,2.30
2023-01-07T12:11:31.202Z,2.30
2023-01-07T12:12:31.222Z,2.10
2023-01-07T12:13:31.161Z,1.80
2023-01-07T12:14:31.161Z,1.90
2023-01-07T12:15:31.179Z,1.90
2023-01-07T12:16:31.280Z,1.90
2023-01-07T12:17:31.122Z,1.80
2023-01-07T12:18:31.340Z,2.00
2023-01-07T12:19:31.111Z,1.70
2023-01-07T12:20:31.107Z,1.80
2023-01-07T12:21:31.089Z,1.80
2023-01-07T12:22:31.074Z,1.90
2023-01-07T12:23:31.074Z,1.70
2023-01-07T12:24:31.238Z,1.50
2023-01-07T12:25:31.559Z,1.70
2023-01-07T12:26:31.063Z,1.50
2023-01-07T12:27:31.028Z,1.50
2023-01-07T12:28:31.001Z,1.60
2023-01-07T12:29:31.013Z,1.60
2023-01-07T12:30:30.982Z,1.70
2023-01-07T12:31:31.045Z,1.60
2023-01-07T12:32:30.977Z,1.90
2023-01-07T12:33:30.946Z,1.50
2023-01-07T12:34:30.958Z,1.70
2023-01-07T12:35:30.935Z,1.50
2023-01-07T12:36:30.918Z,1.60
2023-01-07T12:37:30.935Z,1.70
2023-01-07T12:38:30.937Z,1.60
2023-01-07T12:39:30.868Z,1.70
2023-01-07T12:40:30.892Z,1.20
2023-01-07T12:41:30.890Z,1.40
2023-01-07T12:42:30.848Z,1.60
2023-01-07T12:43:30.880Z,1.40
2023-01-07T12:44:30.862Z,1.30
2023-01-07T12:45:30.812Z,1.30
2023-01-07T12:46:30.852Z,1.40
2023-01-07T12:47:35.044Z,1.20
2023-01-07T12:48:30.781Z,1.10
2023-01-07T12:49:30.827Z,1.10
2023-01-07T12:50:30.806Z,1.30
2023-01-07T12:51:30.783Z,1.00
2023-01-07T12:52:30.744Z,1.10
2023-01-07T12:53:30.723Z,0.90
2023-01-07T12:54:30.781Z,1.20
2023-01-07T12:55:30.721Z,0.90
2023-01-07T12:56:30.703Z,1.00
2023-01-07T12:57:31.630Z,1.20
2023-01-07T12:58:30.683Z,0.90
2023-01-07T12:59:46.518Z,0.90
2023-01-07T13:00:31.696Z,0.90
2023-01-07T13:01:30.781Z,0.90
2023-01-07T13:02:30.716Z,1.00
2023-01-07T13:03:30.618Z,0.80
2023-01-07T13:04:30.679Z,0.80
2023-01-07T13:05:30.594Z,1.10
2023-01-07T13:06:30.614Z,1.00
2023-01-07T13:07:30.563Z,1.20
2023-01-07T13:08:30.561Z,1.30
2023-01-07T13:09:30.566Z,1.00
2023-01-07T13:10:30.608Z,1.10
2023-01-07T13:11:30.529Z,1.10
2023-01-07T13:12:41.449Z,1.10
2023-01-07T13:13:31.540Z,1.10
2023-01-07T13:14:30.496Z,1.00
2023-01-07T13:15:30.478Z,1.00
2023-01-07T13:16:30.602Z,1.00
2023-01-07T13:17:30.492Z,1.20
2023-01-07T13:18:30.441Z,1.20
2023-01-07T13:19:30.442Z,1.10